Latest Weather Observations for Ben Nevis

IDV60801

Issued at 11:22 pm EDT Thursday 21 October 2021 (issued every 10 minutes, with the page automatically refreshed every 10 minutes)

About weather observations | Map of weather stations | Latest weather observations for VIC | Other Formats
Station Details ID: 079101 Name: BEN NEVIS Lat: -37.23 Lon: 143.20 Height: 875.0 m
Data from the previous 72 hours. | See also: Recent months at Ben Nevis
Date/Time
EDT
Temp
°C
App
Temp
°C
Dew
Point
°C
Rel
Hum
%
Delta-T
°C
Wind Press
QNH
hPa
Press
MSL
hPa
Rain since
9am
mm
Dir  Spd
km/h
Gust
km/h
Spd
kts
Gust
kts
21/11:00pm 14.4 11.0 9.2 71 2.8 NNE 17 26 9 14 - - 0.0
21/10:30pm 14.6 10.7 9.6 72 2.7 NE 20 28 11 15 - - 0.0
21/10:00pm 14.6 12.1 9.6 72 2.7 ENE 13 17 7 9 - - 0.0
21/09:30pm 15.1 10.6 9.9 71 2.8 NE 24 37 13 20 - - 0.0
21/09:00pm 15.3 9.2 9.9 70 2.9 ENE 32 41 17 22 - - 0.0
21/08:30pm 15.7 9.5 9.4 66 3.4 ENE 32 43 17 23 - - 0.0
21/08:00pm 16.2 10.3 9.2 63 3.8 ENE 30 39 16 21 - - 0.0
21/07:30pm 16.8 10.8 8.5 58 4.4 NE 30 43 16 23 - - 0.0
21/07:00pm 17.1 11.0 8.3 56 4.7 NE 30 41 16 22 - - 0.0
21/06:30pm 17.2 10.8 8.6 57 4.6 NE 32 44 17 24 - - 0.0
21/06:00pm 17.0 11.4 8.9 59 4.4 NE 28 41 15 22 - - 0.0
21/05:30pm 17.3 12.3 9.7 61 4.2 NE 26 37 14 20 - - 0.0
21/05:00pm 17.3 12.5 9.0 58 4.5 NE 24 39 13 21 - - 0.0
21/04:30pm 18.2 14.3 8.7 54 5.1 NNE 19 35 10 19 - - 0.0
21/04:00pm 18.1 14.9 10.0 59 4.5 NNE 17 30 9 16 - - 0.0
21/03:30pm 19.8 16.3 10.2 54 5.4 N 19 30 10 16 - - 0.0
21/03:00pm 19.8 17.0 11.3 58 4.9 NNE 17 30 9 16 - - 0.0
21/02:30pm 19.0 14.9 10.0 56 5.0 NNE 22 30 12 16 - - 0.0
21/02:00pm 19.8 17.1 10.2 54 5.4 N 15 32 8 17 - - 0.0
21/01:30pm 19.3 16.3 10.6 57 4.9 NNE 17 35 9 19 - - 0.0
21/01:00pm 19.5 16.5 10.8 57 4.9 N 17 26 9 14 - - 0.0
21/12:30pm 19.2 16.3 11.0 59 4.7 N 17 32 9 17 - - 0.0
21/12:00pm 18.7 15.3 10.5 59 4.6 NNE 19 30 10 16 - - 0.0
21/11:30am 18.1 13.9 9.7 58 4.6 NNE 22 41 12 22 - - 0.0
21/11:00am 15.8 11.6 9.9 68 3.2 NNE 22 39 12 21 - - 0.0
21/10:30am 15.7 11.4 9.4 66 3.4 NNE 22 37 12 20 - - 0.0
21/10:00am 14.4 9.4 9.6 73 2.6 NNE 26 39 14 21 - - 0.0
21/09:37am 13.1 7.0 8.2 72 2.5 NNE 30 50 16 27 - - 0.0
21/09:30am 13.0 7.1 8.9 76 2.2 NNE 30 46 16 25 - - 0.0
21/09:00am 13.7 6.8 7.2 65 3.3 NNE 33 52 18 28 - - 0.0
21/08:30am 12.9 5.3 7.6 70 2.7 NNE 37 57 20 31 - - 0.0
21/08:00am 11.9 4.7 7.8 76 2.1 NNE 35 54 19 29 - - 0.0
21/07:30am 12.0 5.2 7.7 75 2.2 NNE 33 54 18 29 - - 0.0
21/07:00am 11.9 6.1 7.8 76 2.1 NNE 28 54 15 29 - - 0.0
21/06:30am 12.3 5.7 7.8 74 2.3 NNE 32 54 17 29 - - 0.0
21/06:00am 13.1 5.8 7.1 67 3.1 NNE 35 63 19 34 - - 0.0
21/05:30am 13.1 5.8 7.1 67 3.1 NNE 35 61 19 33 - - 0.0
21/05:00am 13.3 6.9 7.1 66 3.2 NNE 30 54 16 29 - - 0.0
21/04:30am 13.5 6.7 7.1 65 3.3 NNE 32 50 17 27 - - 0.0
21/04:00am 13.5 5.8 7.3 66 3.2 NNE 37 70 20 38 - - 0.0
21/03:30am 13.9 5.5 7.2 64 3.4 NNE 41 63 22 34 - - 0.0
21/03:00am 14.2 5.7 7.0 62 3.7 NNE 41 61 22 33 - - 0.0
21/02:30am 14.5 6.0 6.8 60 3.9 NNE 41 70 22 38 - - 0.0
21/02:00am 14.1 5.9 6.5 60 3.8 NNE 39 57 21 31 - - 0.0
21/01:30am 14.2 6.0 6.6 60 3.9 NNE 39 65 21 35 - - 0.0
21/01:00am 13.8 5.1 6.2 60 3.8 NNE 41 65 22 35 - - 0.0
21/12:30am 13.9 6.1 6.7 62 3.7 NNE 37 61 20 33 - - 0.0
21/12:00am 14.0 5.5 7.1 63 3.5 NNE 41 61 22 33 - - 0.0
 
Date/Time
EDT
Temp
°C
App
Temp
°C
Dew
Point
°C
Rel
Hum
%
Delta-T
°C
Wind Press
QNH
hPa
Press
MSL
hPa
Rain since
9am
mm
Dir  Spd
km/h
Gust
km/h
Spd
kts
Gust
kts
20/11:30pm 13.8 6.4 6.9 63 3.5 NNE 35 56 19 30 - - 0.0
20/11:01pm 14.1 6.4 7.2 63 3.5 NNE 37 57 20 31 - - 0.0
20/11:00pm 14.1 6.4 7.2 63 3.5 NNE 37 54 20 29 - - 0.0
20/10:39pm 14.2 6.9 7.3 63 3.5 NNE 35 54 19 29 - - 0.0
20/10:30pm 14.2 6.5 7.0 62 3.7 NNE 37 54 20 29 - - 0.0
20/10:00pm 14.3 7.4 6.6 60 3.9 NNE 32 50 17 27 - - 0.0
20/09:37pm 14.4 7.5 6.5 59 4.0 NNE 32 50 17 27 - - 0.0
20/09:30pm 14.4 7.5 6.5 59 4.0 NNE 32 46 17 25 - - 0.0
20/09:00pm 14.5 7.1 6.6 59 4.0 NNE 35 54 19 29 - - 0.0
20/08:31pm 14.6 8.2 6.9 60 3.9 NNE 30 48 16 26 - - 0.0
20/08:30pm 14.5 8.1 6.8 60 3.9 NNE 30 43 16 23 - - 0.0
20/08:00pm 14.5 9.6 6.8 60 3.9 NNE 22 37 12 20 - - 0.0
20/07:30pm 14.6 10.0 6.7 59 4.0 NNE 20 33 11 18 - - 0.0
20/07:00pm 14.9 10.3 6.5 57 4.3 NNE 20 30 11 16 - - 0.0
20/06:30pm 15.4 11.4 6.7 56 4.5 NNE 17 30 9 16 - - 0.0
20/06:00pm 15.5 11.2 7.0 57 4.4 NE 19 30 10 16 - - 0.0
20/05:30pm 16.6 12.5 6.4 51 5.2 NNE 17 30 9 16 - - 0.0
20/05:00pm 17.4 13.6 7.7 53 5.1 NNE 17 28 9 15 - - 0.0
20/04:30pm 17.4 12.9 6.3 48 5.7 N 19 33 10 18 - - 0.0
20/04:00pm 18.2 14.6 6.7 47 6.0 N 15 30 8 16 - - 0.0
20/03:30pm 18.1 14.5 6.6 47 6.0 N 15 32 8 17 - - 0.0
20/03:00pm 18.2 14.7 7.0 48 5.9 N 15 28 8 15 - - 0.0
20/02:30pm 17.8 14.2 6.7 48 5.8 NNE 15 24 8 13 - - 0.0
20/02:00pm 17.5 12.6 7.0 50 5.5 NNE 22 41 12 22 - - 0.0
20/01:30pm 17.3 13.8 7.1 51 5.3 N 15 33 8 18 - - 0.0
20/01:00pm 16.1 11.6 6.0 51 5.1 NNE 19 35 10 19 - - 0.0
20/12:30pm 16.6 12.2 6.4 51 5.2 NNE 19 43 10 23 - - 0.0
20/12:00pm 15.5 10.5 6.5 55 4.6 NNE 22 39 12 21 - - 0.0
20/11:30am 14.4 9.1 5.0 53 4.6 NNE 22 41 12 22 - - 0.0
20/11:00am 12.6 6.6 5.3 61 3.6 NE 26 39 14 21 - - 0.0
20/10:30am 11.7 4.9 5.3 65 3.1 NE 30 46 16 25 - - 0.0
20/10:00am 10.9 3.6 4.6 65 3.0 NE 32 50 17 27 - - 0.0
20/09:47am 11.0 3.6 4.0 62 3.3 NE 32 50 17 27 - - 0.0
20/09:30am 10.4 2.4 3.7 63 3.1 NE 35 50 19 27 - - 0.0
20/09:00am 9.9 2.2 3.6 65 2.9 NE 33 52 18 28 - - 0.0
20/08:46am 9.7 2.6 3.4 65 2.9 NE 30 48 16 26 - - 0.0
20/08:30am 9.2 2.1 3.6 68 2.6 NE 30 41 16 22 - - 0.0
20/08:00am 8.5 2.6 3.9 73 2.1 NE 24 35 13 19 - - 0.0
20/07:30am 6.9 0.8 4.6 85 1.1 NE 26 35 14 19 - - 0.0
20/07:00am 6.6 0.8 4.4 86 1.0 NE 24 35 13 19 - - 0.0
20/06:30am 6.5 0.0 4.5 87 0.9 ENE 28 39 15 21 - - 0.0
20/06:00am 6.0 -1.5 4.5 90 0.7 ENE 33 43 18 23 - - 0.0
20/05:30am 6.3 -0.6 4.5 88 0.8 ENE 30 39 16 21 - - 0.0
20/05:00am 6.7 0.9 4.2 84 1.1 ENE 24 33 13 18 - - 0.0
20/04:30am 6.5 0.7 4.3 86 1.0 ENE 24 35 13 19 - - 0.0
20/04:00am 6.7 0.1 4.4 85 1.0 ENE 28 41 15 22 - - 0.0
20/03:30am 6.6 -0.3 4.4 86 1.0 ENE 30 41 16 22 - - 0.0
20/03:00am 6.5 0.3 4.3 86 1.0 ENE 26 39 14 21 - - 0.0
20/02:30am 6.4 0.6 4.4 87 0.9 ENE 24 35 13 19 - - 0.0
20/02:00am 6.3 0.5 4.6 89 0.8 E 24 33 13 18 - - 0.0
20/01:30am 6.6 0.0 4.4 86 1.0 E 28 35 15 19 - - 0.0
20/01:00am 6.4 -0.1 4.9 90 0.7 E 28 37 15 20 - - 0.0
20/12:30am 6.5 -0.3 5.3 92 0.6 E 30 41 16 22 - - 0.0
20/12:00am 6.3 -0.1 5.4 94 0.4 ESE 28 43 15 23 - - 0.0
 
Date/Time
EDT
Temp
°C
App
Temp
°C
Dew
Point
°C
Rel
Hum
%
Delta-T
°C
Wind Press
QNH
hPa
Press
MSL
hPa
Rain since
9am
mm
Dir  Spd
km/h
Gust
km/h
Spd
kts
Gust
kts
19/11:33pm 6.3 -0.8 5.6 95 0.3 ESE 32 50 17 27 - - 0.0
19/11:30pm 6.3 -0.8 5.6 95 0.3 ESE 32 48 17 26 - - 0.0
19/11:00pm 6.1 -1.1 5.2 94 0.4 ESE 32 50 17 27 - - 0.0
19/10:56pm 6.2 -0.9 5.3 94 0.4 ESE 32 50 17 27 - - 0.0
19/10:30pm 6.2 -0.5 5.6 96 0.3 SE 30 46 16 25 - - 0.0
19/10:27pm 6.1 -0.3 5.4 95 0.3 SE 28 46 15 25 - - 0.0
19/10:00pm 6.3 0.2 4.9 91 0.6 ESE 26 39 14 21 - - 0.0
19/09:30pm 6.4 0.8 5.2 92 0.6 SE 24 41 13 22 - - 0.0
19/09:00pm 6.6 1.8 5.4 92 0.6 SE 20 32 11 17 - - 0.0
19/08:30pm 6.9 2.3 5.7 92 0.6 SSE 19 30 10 16 - - 0.0
19/08:00pm 7.4 3.5 5.5 88 0.9 SE 15 24 8 13 - - 0.0
19/07:30pm 8.0 4.9 5.5 84 1.2 SSE 11 15 6 8 - - 0.0
19/07:00pm 8.6 5.2 5.7 82 1.4 SE 13 20 7 11 - - 0.0
19/06:30pm 9.4 6.4 5.9 79 1.7 SE 11 22 6 12 - - 0.0
19/06:00pm 9.4 4.6 4.4 71 2.3 SE 19 32 10 17 - - 0.0
19/05:30pm 10.0 6.1 5.4 73 2.2 SE 15 28 8 15 - - 0.0
19/05:00pm 10.1 5.8 5.3 72 2.3 SSE 17 26 9 14 - - 0.0
19/04:30pm 11.5 8.4 5.4 66 3.0 SSE 11 20 6 11 - - 0.0
19/04:00pm 11.0 7.2 3.8 61 3.4 SSE 13 24 7 13 - - 0.0
19/03:30pm 12.3 8.6 4.3 58 3.8 ESE 13 22 7 12 - - 0.0
19/03:00pm 11.0 7.0 3.1 58 3.6 SE 13 26 7 14 - - 0.0
19/02:30pm 10.3 6.4 3.3 62 3.2 SE 13 28 7 15 - - 0.0
19/02:00pm 10.5 5.9 3.8 63 3.1 SSE 17 30 9 16 - - 0.0
19/01:30pm 9.7 5.8 3.4 65 2.9 SE 13 24 7 13 - - 0.0
19/01:00pm 9.7 5.4 5.1 73 2.2 S 17 26 9 14 - - 0.0
19/12:30pm 10.6 7.5 5.4 70 2.5 S 11 24 6 13 - - 0.0
19/12:00pm 9.4 5.6 5.8 78 1.7 SE 15 26 8 14 - - 0.0
19/11:30am 7.4 3.7 4.4 81 1.4 S 13 20 7 11 - - 0.0
19/11:00am 7.3 3.7 6.7 96 0.3 SSE 15 28 8 15 - - 0.0
19/10:30am 7.2 4.5 7.2 100 0.0 SSE 11 19 6 10 - - 0.0
19/10:00am 5.5 2.8 5.5 100 0.0 S 9 19 5 10 - - 0.0
19/09:30am 5.2 2.0 5.2 100 0.0 SSE 11 20 6 11 - - 0.0
19/09:00am 4.7 1.0 4.7 100 0.0 S 13 20 7 11 - - 0.6
19/08:30am 4.5 0.8 4.5 100 0.0 S 13 24 7 13 - - 0.6
19/08:00am 4.4 -0.1 4.4 100 0.0 SSW 17 28 9 15 - - 0.6
19/07:30am 4.1 -0.4 4.1 100 0.0 S 17 28 9 15 - - 0.4
19/07:00am 3.7 -1.9 3.7 100 0.0 SSW 22 35 12 19 - - 0.4
19/06:30am 3.7 -0.9 3.7 100 0.0 S 17 26 9 14 - - 0.4
19/06:00am 4.0 -1.1 4.0 100 0.0 SSW 20 28 11 15 - - 0.4
19/05:30am 3.9 -2.0 3.9 100 0.0 SSW 24 39 13 21 - - 0.4
19/05:00am 4.0 -1.1 4.0 100 0.0 SSW 20 33 11 18 - - 0.4
19/04:30am 3.9 -1.6 3.9 100 0.0 S 22 37 12 20 - - 0.2
19/04:00am 4.2 -0.9 4.2 100 0.0 S 20 33 11 18 - - 0.2
19/03:30am 3.9 -2.0 3.9 100 0.0 S 24 43 13 23 - - 0.2
19/03:00am 4.1 -1.0 4.1 100 0.0 S 20 32 11 17 - - 0.2
19/02:30am 4.0 -1.5 4.0 100 0.0 S 22 33 12 18 - - 0.2
19/02:00am 4.3 -1.1 4.3 100 0.0 SSW 22 35 12 19 - - 0.2
19/01:30am 4.4 -1.0 4.4 100 0.0 SSW 22 35 12 19 - - 0.2
19/01:00am 4.6 -0.4 4.6 100 0.0 S 20 32 11 17 - - 0.2
19/12:30am 4.6 -0.4 4.6 100 0.0 SSW 20 33 11 18 - - 0.0
19/12:00am 4.7 -0.7 4.7 100 0.0 SSW 22 35 12 19 - - 0.0
 
Date/Time
EDT
Temp
°C
App
Temp
°C
Dew
Point
°C
Rel
Hum
%
Delta-T
°C
Wind Press
QNH
hPa
Press
MSL
hPa
Rain since
9am
mm
Dir  Spd
km/h
Gust
km/h
Spd
kts
Gust
kts
18/11:30pm 4.7 -0.3 4.6 99 0.0 SSW 20 33 11 18 - - 0.0

Other formats

Comma delimited format used in spreadsheet applications
http://www.bom.gov.au/fwo/IDV60801/IDV60801.94835.axf

JavaScript Object Notation format (JSON) in row-major order
http://www.bom.gov.au/fwo/IDV60801/IDV60801.94835.json

Data quality

Most of these data are generated automatically and are frequently updated. Quality checks on data are not normally performed. It is possible for incorrect values to appear. Refer to information at About Latest Weather Observations and please check the disclaimer before using these data.